Classifiche di sempre
Migliori tempi personali validi di atleta tra tutti gli eventi e le stagioni. Ogni atleta compare una sola volta per divisione.
Cerca per nome e apri la pagina in cui è classificato questo record di divisione.
177,852 atleti in classifica
| Pos. | Pos. AG | Atleta | Nazionalità | Categoria età | TempoMiglior tempo | Distacco |
|---|---|---|---|---|---|---|
| 27401 | #5896 | Matty HillGBR · M 35-39 · AG #5896 | GBR | M 35-39 | 1:13:51 | +23:13 |
| 27402 | #5898 | Zubeen MistryUSA · M 35-39 · AG #5898 | USA | M 35-39 | 1:13:51 | +23:13 |
| 27403 | #5899 | Mark MoschelUSA · M 35-39 · AG #5899 | USA | M 35-39 | 1:13:51 | +23:13 |
| 27404 | #7024 | Patricio CantuMEX · M 25-29 · AG #7024 | MEX | M 25-29 | 1:13:51 | +23:13 |
| 27405 | #7026 | Casey GreenUSA · M 25-29 · AG #7026 | USA | M 25-29 | 1:13:51 | +23:13 |
| 27406 | #1298 | Jean-Pierre Van der SpuyGBR · M 45-49 · AG #1298 | GBR | M 45-49 | 1:13:51 | +23:13 |
| 27407 | #7028 | Sebastian León SolórzanoCRC · M 25-29 · AG #7028 | CRC | M 25-29 | 1:13:51 | +23:13 |
| 27408 | #5900 | Igno MaggioITA · M 35-39 · AG #5900 | ITA | M 35-39 | 1:13:51 | +23:13 |
| 27409 | #7029 | Naël GASCOFRA · M 25-29 · AG #7029 | FRA | M 25-29 | 1:13:51 | +23:13 |
| 27410 | #8277 | Daniel NOTTINGHAMGBR · M 30-34 · AG #8277 | GBR | M 30-34 | 1:13:51 | +23:13 |
| 27411 | #3264 | Jakub OstafiskiPOL · M 16-24 · AG #3264 | POL | M 16-24 | 1:13:51 | +23:13 |
| 27412 | #7030 | Darren BlackwellGBR · M 25-29 · AG #7030 | GBR | M 25-29 | 1:13:51 | +23:13 |
| 27413 | #7031 | Dominic BurannGER · M 25-29 · AG #7031 | GER | M 25-29 | 1:13:51 | +23:13 |
| 27414 | #8278 | Stephen KennyGBR · M 30-34 · AG #8278 | GBR | M 30-34 | 1:13:51 | +23:13 |
| 27415 | #3103 | Ross Anthony DewhurstGBR · M 40-44 · AG #3103 | GBR | M 40-44 | 1:13:51 | +23:13 |
| 27416 | #7025 | Nicolas KilianGER · M 25-29 · AG #7025 | GER | M 25-29 | 1:13:51 | +23:13 |
| 27417 | #3102 | Chris DurdleGBR · M 40-44 · AG #3102 | GBR | M 40-44 | 1:13:51 | +23:13 |
| 27418 | #3263 | Jack AndrewsGBR · M 16-24 · AG #3263 | GBR | M 16-24 | 1:13:51 | +23:13 |
| 27419 | #7027 | Mario Del PianoITA · M 25-29 · AG #7027 | ITA | M 25-29 | 1:13:51 | +23:13 |
| 27420 | #8275 | Emiliano AvdiGRE · M 30-34 · AG #8275 | GRE | M 30-34 | 1:13:51 | +23:13 |
| 27421 | #8273 | Maxime JayatFRA · M 30-34 · AG #8273 | FRA | M 30-34 | 1:13:51 | +23:13 |
| 27422 | #7033 | Lukas HeynemeierGER · M 25-29 · AG #7033 | GER | M 25-29 | 1:13:51 | +23:13 |
| 27423 | #454 | Matthew UsherGBR · M 50-54 · AG #454 | GBR | M 50-54 | 1:13:51 | +23:13 |
| 27424 | #1299 | Esa-Matti AaltoGER · M 45-49 · AG #1299 | GER | M 45-49 | 1:13:51 | +23:13 |
| 27425 | #8276 | Calum MclatchieGBR · M 30-34 · AG #8276 | GBR | M 30-34 | 1:13:51 | +23:13 |
Pagina 1,097 di 7,115